Terminal Aerodrome Forecast
Issued by NWS

Home | Current Version | Previous Version | Text Only | Print | Product List | Glossary On
Versions: 1 2 3 4 5 6 7 8 9 10 11 12 13 14 15 16 17 18 19 20
000
FTUS46 KEKA 290539
TAFUKI
TAF
KUKI 290539Z 2906/3006 36005KT P6SM FEW110 SCT250
     FM292000 31005KT P6SM FEW050 SCT080 BKN250
     FM300000 30005KT P6SM VCSH SCT050 OVC080=

USA.gov is the U.S. government's official web portal to all federal, state and local government web resources and services.